Time;durP1;ratioP1;P1;durP2;ratioP2;P2;SDS_P1;SDS_P2;PMS_P1;PMS_P2;Temp;Humidity;BMP_temperature;BMP_pressure;BME280_temperature;BME280_humidity;BME280_pressure;Samples;Min_cycle;Max_cycle;Signal;HPM_P1;HPM_P2
2022/02/14 08:42:56;;;;;;;;;;;;;;;;;;;;;
2022/02/14 10:11:49;;;;;;;;;;;;;;;;;;;;;
2022/02/14 11:16:37;;;;;;;;;;;;;;;;;;;;;
2022/02/14 11:19:33;;;;;;;;;2.00;2.00;;;;;12.82;50.67;100207.44;6260396;22;74400;-82
2022/02/14 11:22:03;;;;;;;;;0.00;0.00;;;;;12.83;50.25;100217.09;6270633;22;45437;-80
2022/02/14 11:24:36;;;;;;;;;1.67;1.00;;;;;12.83;50.87;100209.19;6275304;22;45344;-80
2022/02/14 11:27:13;;;;;;;;;1.00;1.00;;;;;12.96;51.25;100210.66;6307334;22;45382;-80
2022/02/14 11:29:51;;;;;;;;;4.00;1.00;;;;;13.00;50.33;100207.03;6280267;22;48007;-81
2022/02/14 11:32:27;;;;;;;;;3.33;2.33;;;;;12.93;50.47;100197.50;6306935;22;45175;-84
2022/02/14 11:34:54;;;;;;;;;2.00;2.00;;;;;13.01;50.94;100202.59;6308903;22;45180;-83
2022/02/14 11:37:23;;;;;;;;;2.00;2.00;;;;;12.98;50.32;100195.63;6280455;22;45753;-81
2022/02/14 11:39:50;;;;;;;;;2.67;2.67;;;;;12.95;50.73;100189.53;6308530;22;45223;-80
2022/02/14 11:42:18;;;;;;;;;4.75;2.50;;;;;12.92;50.80;100194.91;6308177;22;45302;-80
2022/02/14 11:44:45;;;;;;;;;4.00;2.00;;;;;12.86;50.52;100208.25;6280838;22;45493;-80
2022/02/14 11:47:16;;;;;;;;;2.67;2.67;;;;;12.82;51.30;100198.63;6307567;22;45393;-80
2022/02/14 11:49:50;;;;;;;;;3.00;2.67;;;;;12.79;50.93;100184.59;6280630;22;47684;-82
2022/02/14 11:52:30;;;;;;;;;2.00;2.00;;;;;12.80;51.14;100180.16;6280477;22;45216;-79
2022/02/14 11:55:02;;;;;;;;;3.00;3.00;;;;;12.63;51.15;100175.25;6280503;22;45684;-81
2022/02/14 11:57:36;;;;;;;;;3.00;2.00;;;;;12.60;51.41;100187.66;6279971;22;45232;-82
2022/02/14 12:00:27;;;;;;;;;2.00;2.00;;;;;12.55;51.82;100188.63;6280089;22;47481;-79
2022/02/14 12:03:14;;;;;;;;;3.00;2.00;;;;;12.54;51.81;100193.94;6308302;22;45344;-81
2022/02/14 12:05:57;;;;;;;;;2.33;1.00;;;;;12.57;51.72;100185.97;6280336;22;45260;-81
2022/02/14 12:08:28;;;;;;;;;1.00;1.00;;;;;12.68;51.61;100176.03;6306301;22;45849;-79
2022/02/14 12:10:57;;;;;;;;;1.00;0.67;;;;;12.98;51.10;100178.91;6308505;22;46218;-80
2022/02/14 12:13:25;;;;;;;;;2.00;2.00;;;;;13.17;51.27;100174.91;6280988;22;45281;-80
2022/02/14 12:21:29;;;;;;;;;3.00;3.00;;;;;13.39;50.43;100177.06;6308030;22;45377;-80
2022/02/14 12:24:21;;;;;;;;;;;;;;;;;;;;;
2022/02/14 12:26:58;;;;;;;;;3.00;1.33;;;;;13.21;50.46;100179.25;6307556;22;68571;-81
2022/02/14 12:29:35;;;;;;;;;2.33;2.00;;;;;13.19;50.40;100181.03;6304914;22;45189;-80
2022/02/14 12:32:06;;;;;;;;;2.00;1.50;;;;;13.44;50.69;100186.66;6280419;22;47014;-80
2022/02/14 12:34:37;;;;;;;;;3.00;2.00;;;;;13.60;50.39;100175.69;6280602;22;45282;-79
2022/02/14 12:37:49;;;;;;;;;2.00;1.00;;;;;13.74;50.29;100172.69;6306391;22;45295;-79
2022/02/14 12:40:18;;;;;;;;;3.67;2.00;;;;;13.74;49.98;100177.97;6284123;22;45423;-80
2022/02/14 12:42:46;;;;;;;;;1.00;1.00;;;;;13.73;50.15;100187.69;6280309;22;47062;-81
2022/02/14 12:45:14;;;;;;;;;2.67;2.67;;;;;13.72;50.29;100178.03;6280452;22;45284;-79
2022/02/14 12:47:42;;;;;;;;;2.33;2.33;;;;;13.73;50.09;100177.09;6306968;22;45149;-79
2022/02/14 12:50:11;;;;;;;;;3.67;3.00;;;;;13.77;50.28;100185.84;6308907;22;45414;-78
2022/02/14 12:52:42;;;;;;;;;5.00;2.00;;;;;13.82;50.36;100179.53;6279783;22;46391;-79
2022/02/14 12:55:12;;;;;;;;;2.00;2.00;;;;;14.24;50.92;100183.69;6308763;22;45199;-82
2022/02/14 12:57:45;;;;;;;;;3.00;3.00;;;;;14.66;50.14;100176.31;6308406;22;45220;-79
2022/02/14 13:00:26;;;;;;;;;4.00;2.00;;;;;14.91;49.28;100159.69;6280640;22;45372;-79
2022/02/14 13:03:07;;;;;;;;;2.00;0.00;;;;;15.29;48.84;100142.56;6308435;22;45664;-79
2022/02/14 13:05:34;;;;;;;;;1.00;1.00;;;;;15.78;47.00;100140.94;6308547;22;45486;-79
2022/02/14 13:08:17;;;;;;;;;2.00;2.00;;;;;16.35;46.01;100138.88;6307207;22;45184;-79
2022/02/14 13:10:49;;;;;;;;;1.33;1.33;;;;;16.80;45.06;100138.06;6279603;22;45431;-79
2022/02/14 13:13:28;;;;;;;;;3.67;3.00;;;;;17.01;44.77;100120.41;6279370;22;46765;-79
2022/02/14 13:18:49;;;;;;;;;4.67;1.00;;;;;17.73;42.56;100114.72;6307701;22;45340;-80
2022/02/14 13:21:18;;;;;;;;;1.67;1.33;;;;;17.51;40.48;100136.09;6280647;22;45283;-78
2022/02/14 13:23:47;;;;;;;;;1.33;1.00;;;;;17.03;40.70;100144.31;6280778;22;47178;-81
2022/02/14 13:26:26;;;;;;;;;3.00;3.00;;;;;16.44;41.97;100138.53;6305641;22;45317;-81
2022/02/14 13:28:57;;;;;;;;;3.00;3.00;;;;;16.03;42.73;100119.66;6281077;22;45260;-81
2022/02/14 13:31:32;;;;;;;;;1.00;1.00;;;;;15.95;42.73;100137.66;6308790;22;45426;-82
2022/02/14 13:34:03;;;;;;;;;0.33;0.33;;;;;16.16;42.34;100141.34;6306800;22;47237;-82
2022/02/14 13:36:31;;;;;;;;;2.00;1.00;;;;;16.20;42.37;100142.09;6280323;22;45367;-82
2022/02/14 13:38:57;;;;;;;;;0.00;0.00;;;;;16.10;42.80;100145.09;6309023;22;45284;-82
2022/02/14 13:41:28;;;;;;;;;1.00;1.00;;;;;15.85;42.29;100138.91;6309391;22;45299;-81
2022/02/14 13:43:54;;;;;;;;;1.67;1.67;;;;;15.75;43.33;100126.91;6309865;22;45511;-80
2022/02/14 13:46:34;;;;;;;;;2.00;1.33;;;;;15.79;43.33;100117.91;6309477;22;45518;-82
2022/02/14 13:49:00;;;;;;;;;1.67;1.00;;;;;15.83;43.69;100107.13;6307326;22;45255;-81
2022/02/14 13:51:31;;;;;;;;;1.00;1.00;;;;;16.13;43.79;100100.75;6307723;22;45477;-81
2022/02/14 13:54:01;;;;;;;;;2.00;2.00;;;;;16.63;43.89;100097.97;6280978;22;48092;-80
2022/02/14 13:56:28;;;;;;;;;0.33;0.00;;;;;17.22;42.67;100085.91;6281028;22;45180;-80
2022/02/14 13:58:58;;;;;;;;;1.00;1.00;;;;;17.73;42.56;100096.09;6281326;22;45375;-80
2022/02/14 14:01:42;;;;;;;;;1.00;1.00;;;;;18.27;40.01;100089.25;6281020;22;45808;-80
2022/02/14 14:04:29;;;;;;;;;0.00;0.00;;;;;18.40;40.08;100112.69;6306675;22;47025;-82
2022/02/14 14:07:39;;;;;;;;;0.00;0.00;;;;;17.98;39.48;100103.88;6280091;22;45306;-81
2022/02/14 14:10:08;;;;;;;;;1.00;1.00;;;;;17.55;40.16;100102.22;6218833;22;45533;-81
2022/02/14 14:12:45;;;;;;;;;1.67;1.00;;;;;17.28;41.11;100097.13;6243686;22;45564;-82
2022/02/14 14:15:11;;;;;;;;;1.00;1.00;;;;;17.14;40.96;100103.03;6309975;22;45219;-79
2022/02/14 14:17:39;;;;;;;;;2.00;2.00;;;;;16.97;41.37;100108.16;6280843;22;45272;-80
2022/02/14 14:20:14;;;;;;;;;1.00;1.00;;;;;17.35;41.50;100111.06;6309655;22;45376;-82
2022/02/14 14:22:45;;;;;;;;;3.00;1.00;;;;;18.42;40.95;100108.16;6281110;22;45389;-79
2022/02/14 14:25:13;;;;;;;;;1.33;0.00;;;;;19.17;38.67;100117.91;6280381;22;48173;-79
2022/02/14 14:27:43;;;;;;;;;1.00;1.00;;;;;19.05;37.64;100115.84;6308890;22;45444;-80
2022/02/14 14:30:09;;;;;;;;;0.00;0.00;;;;;18.28;37.61;100114.09;6280860;22;45278;-80
2022/02/14 14:32:35;;;;;;;;;1.00;0.00;;;;;17.50;38.07;100107.72;6306856;22;45193;-79
2022/02/14 14:35:04;;;;;;;;;1.00;1.00;;;;;16.89;39.06;100115.56;6307259;22;46906;-80
2022/02/14 14:37:32;;;;;;;;;0.00;0.00;;;;;16.39;39.77;100103.31;6280721;22;45303;-79
2022/02/14 14:40:00;;;;;;;;;2.50;2.00;;;;;16.03;40.89;100110.84;6309401;22;45300;-79
2022/02/14 14:42:26;;;;;;;;;1.33;1.33;;;;;15.65;41.58;100110.41;6307217;22;45455;-80
2022/02/14 14:44:52;;;;;;;;;2.00;1.00;;;;;15.35;42.12;100115.84;6306925;22;46935;-79
2022/02/14 14:47:28;;;;;;;;;1.33;0.00;;;;;15.06;43.01;100105.31;6308965;22;45168;-80
2022/02/14 14:50:03;;;;;;;;;3.00;1.00;;;;;14.86;43.34;100112.13;6281207;22;45425;-80
2022/02/14 14:52:29;;;;;;;;;0.00;0.00;;;;;14.70;44.18;100116.16;6307029;22;45817;-81
2022/02/14 14:54:56;;;;;;;;;2.00;1.00;;;;;14.51;44.82;100126.41;6309365;22;45322;-79
2022/02/14 14:57:28;;;;;;;;;1.67;1.00;;;;;14.38;45.16;100127.69;6280730;22;45551;-82
2022/02/14 14:59:59;;;;;;;;;4.00;2.67;;;;;14.20;46.86;100153.78;6309802;22;45197;-79
2022/02/14 15:02:27;;;;;;;;;2.00;2.00;;;;;13.93;48.65;100157.22;6306813;22;45203;-83
2022/02/14 15:05:01;;;;;;;;;2.67;2.67;;;;;13.69;49.08;100154.31;6281039;22;47898;-79
